Accueil
METAR-TAF:

METAR-TAF

Aéroports :

Lelystad, Pays-Bas

latitude: 52-27-37N, longitude: 005-31-38E, altitude: -4 m

Observation

Le bulletin a été fait il y a 15 minutes, à 15:55 UTC
Vent 4 kt de sud-ouest
Température 3°C
Humidité 81%
Pression 998 hPa
Visibilité 10 km ou plus
Nuages épars à une hauteur de 2500 ft
Nuages fragmentés à une hauteur de 3200 ft

METAR: EHLE 241555Z AUTO 23004KT 9999 SCT025 BKN032 03/M00 Q0998 NOSIG

Heure: 17:10 (16:10 UTC)

Prévision

Le bulletin a été fait il y a 4 heures et 52 minutes, à 11:18 UTC
Prévision valable du 24 à 12 UTC au 25 à 18 UTC
Vent 6 kt de ouest
Visibilité 10 km ou plus
Nuages épars à une hauteur de 2500 ft
Evoluant progressivement
du 24 à 14 UTC au 24 à 17 UTC
Vent 3 kt de direction variable
Evoluant progressivement
du 25 à 10 UTC au 25 à 13 UTC
Vent 10 kt de ouest

TAF: EHLE 241118Z 2412/2518 26006KT 9999 SCT025 BECMG 2414/2417 VRB03KT BECMG 2510/2513 28010KT

Observations et prévisions météorologiques de plus de 4000 aéroports (messages METAR et TAF).

Les stations disponibles sont représentées par des disques jaunes et rouges sur la carte.

Passer la souris dessus pour voir le nom de la station.

Cliquer dessus pour voir les observations et prévisions météorologiques.

Pour changer de carte: cliquez sur les boutons verts avec une croix noire pour zoomer, sur le bouton vert avec un tiret pour effectuer un zoom arrière, ou sur les flèches vertes pour les cartes adjacentes.


METAR-TAF: